createdAt,value
2019-05-11T00:00:23.334Z,84.66
2019-05-11T00:01:23.328Z,84.66
2019-05-11T00:02:23.311Z,84.56
2019-05-11T00:03:23.305Z,84.56
2019-05-11T00:04:23.289Z,84.76
2019-05-11T00:05:23.276Z,84.45
2019-05-11T00:06:23.272Z,84.29
2019-05-11T00:07:23.258Z,84.76
2019-05-11T00:08:23.255Z,84.59
2019-05-11T00:09:23.239Z,84.97
2019-05-11T00:10:23.760Z,84.50
2019-05-11T00:11:23.211Z,84.59
2019-05-11T00:12:23.200Z,84.59
2019-05-11T00:13:23.197Z,84.80
2019-05-11T00:14:23.179Z,84.70
2019-05-11T00:15:23.168Z,84.76
2019-05-11T00:16:23.158Z,84.59
2019-05-11T00:17:23.146Z,84.50
2019-05-11T00:18:23.149Z,84.45
2019-05-11T00:19:23.131Z,84.50
2019-05-11T00:20:23.114Z,84.45
2019-05-11T00:21:23.106Z,84.50
2019-05-11T00:22:23.093Z,84.90
2019-05-11T00:23:23.091Z,85.11
2019-05-11T00:24:23.082Z,85.41
2019-05-11T00:25:23.085Z,85.11
2019-05-11T00:26:23.048Z,85.21
2019-05-11T00:27:23.037Z,85.00
2019-05-11T00:28:23.052Z,85.72
2019-05-11T00:29:23.026Z,86.13
2019-05-11T00:30:23.006Z,85.11
2019-05-11T00:31:22.995Z,86.13
2019-05-11T00:32:23.143Z,85.61
2019-05-11T00:33:22.990Z,86.13
2019-05-11T00:34:22.963Z,85.31
2019-05-11T00:35:22.959Z,85.21
2019-05-11T00:36:22.944Z,86.06
2019-05-11T00:37:22.927Z,86.16
2019-05-11T00:38:22.930Z,86.13
2019-05-11T00:39:22.913Z,86.02
2019-05-11T00:40:22.903Z,85.51
2019-05-11T00:41:22.909Z,86.37
2019-05-11T00:42:22.874Z,86.37
2019-05-11T00:43:22.879Z,86.06
2019-05-11T00:44:22.853Z,86.37
2019-05-11T00:45:22.849Z,85.96
2019-05-11T00:46:22.831Z,86.27
2019-05-11T00:47:22.840Z,86.27
2019-05-11T00:48:22.821Z,86.47
2019-05-11T00:49:22.803Z,86.27
2019-05-11T00:50:38.072Z,86.27
2019-05-11T00:51:23.788Z,86.06
2019-05-11T00:52:22.767Z,86.06
2019-05-11T00:53:22.769Z,86.06
2019-05-11T00:54:22.749Z,86.27
2019-05-11T00:55:22.738Z,85.25
2019-05-11T00:56:22.723Z,86.37
2019-05-11T00:57:22.713Z,86.37
2019-05-11T00:58:22.720Z,86.06
2019-05-11T00:59:22.696Z,85.25
2019-05-11T01:00:22.692Z,86.06
2019-05-11T01:01:22.671Z,85.96
2019-05-11T01:02:22.657Z,85.25
2019-05-11T01:03:22.675Z,85.66
2019-05-11T01:04:22.665Z,85.35
2019-05-11T01:05:22.663Z,86.16
2019-05-11T01:06:22.626Z,86.27
2019-05-11T01:07:22.624Z,86.27
2019-05-11T01:08:22.594Z,86.16
2019-05-11T01:09:22.597Z,85.96
2019-05-11T01:10:29.051Z,86.06
2019-05-11T01:11:23.560Z,86.16
2019-05-11T01:12:22.551Z,86.06
2019-05-11T01:13:22.589Z,86.27
2019-05-11T01:14:22.540Z,86.27
2019-05-11T01:15:22.521Z,86.10
2019-05-11T01:16:22.510Z,86.30
2019-05-11T01:17:22.498Z,86.51
2019-05-11T01:18:22.491Z,86.41
2019-05-11T01:19:22.492Z,86.92
2019-05-11T01:20:22.465Z,87.26
2019-05-11T01:21:22.454Z,87.57
2019-05-11T01:22:22.444Z,87.06
2019-05-11T01:23:22.432Z,87.43
2019-05-11T01:24:22.442Z,87.37
2019-05-11T01:25:22.409Z,87.02
2019-05-11T01:26:22.400Z,87.32
2019-05-11T01:27:22.389Z,87.53
2019-05-11T01:28:22.384Z,87.53
2019-05-11T01:29:22.405Z,87.73
2019-05-11T01:30:22.359Z,88.59
2019-05-11T01:31:22.347Z,88.18
2019-05-11T01:32:22.338Z,88.59
2019-05-11T01:33:22.332Z,88.39
2019-05-11T01:34:22.324Z,88.39
2019-05-11T01:35:22.306Z,88.39
2019-05-11T01:36:22.294Z,88.24
2019-05-11T01:37:22.324Z,88.59
2019-05-11T01:38:22.269Z,88.39
2019-05-11T01:39:22.270Z,87.98
2019-05-11T01:40:22.248Z,88.59
2019-05-11T01:41:22.240Z,87.67
2019-05-11T01:42:22.228Z,88.08
2019-05-11T01:43:22.225Z,88.49
2019-05-11T01:44:22.223Z,88.28
2019-05-11T01:45:22.198Z,87.77
2019-05-11T01:46:22.185Z,87.73
2019-05-11T01:47:22.172Z,87.88
2019-05-11T01:48:22.163Z,88.08
2019-05-11T01:49:22.165Z,88.08
2019-05-11T01:50:22.157Z,88.28
2019-05-11T01:51:22.131Z,88.34
2019-05-11T01:52:22.105Z,88.39
2019-05-11T01:53:22.114Z,88.24
2019-05-11T01:54:22.132Z,88.69
2019-05-11T01:55:22.087Z,88.75
2019-05-11T01:56:22.067Z,88.14
2019-05-11T01:57:22.053Z,88.69
2019-05-11T01:58:22.056Z,88.28
2019-05-11T01:59:22.036Z,88.39
2019-05-11T02:00:22.033Z,88.18
2019-05-11T02:01:22.029Z,88.39
2019-05-11T02:02:22.013Z,88.39
2019-05-11T02:03:21.987Z,88.08
2019-05-11T02:04:21.979Z,88.39
2019-05-11T02:05:21.979Z,87.77
2019-05-11T02:06:21.973Z,88.28
2019-05-11T02:07:21.957Z,88.18
2019-05-11T02:08:21.948Z,88.18
2019-05-11T02:09:21.926Z,88.34
2019-05-11T02:10:21.932Z,88.24
2019-05-11T02:11:21.904Z,88.08
2019-05-11T02:12:21.890Z,88.14
2019-05-11T02:13:21.889Z,88.18
2019-05-11T02:14:21.873Z,88.69
2019-05-11T02:15:21.876Z,88.55
2019-05-11T02:16:21.851Z,88.75
2019-05-11T02:17:21.839Z,88.24
2019-05-11T02:18:21.834Z,88.55
2019-05-11T02:19:21.824Z,88.75
2019-05-11T02:20:21.838Z,88.45
2019-05-11T02:21:21.815Z,88.55
2019-05-11T02:22:21.783Z,88.14
2019-05-11T02:23:21.773Z,88.04
2019-05-11T02:24:21.772Z,88.45
2019-05-11T02:25:21.768Z,88.14
2019-05-11T02:26:21.743Z,87.84
2019-05-11T02:27:21.734Z,87.43
2019-05-11T02:28:21.722Z,87.84
2019-05-11T02:29:21.711Z,88.45
2019-05-11T02:30:21.716Z,87.73
2019-05-11T02:31:21.786Z,88.45
2019-05-11T02:32:21.678Z,88.24
2019-05-11T02:33:21.671Z,87.53
2019-05-11T02:34:21.656Z,87.53
2019-05-11T02:35:21.658Z,87.12
2019-05-11T02:36:21.661Z,86.82
2019-05-11T02:37:21.639Z,87.12
2019-05-11T02:38:21.613Z,87.23
2019-05-11T02:39:21.601Z,86.92
2019-05-11T02:40:21.630Z,86.51
2019-05-11T02:41:35.322Z,86.30
2019-05-11T02:42:22.573Z,86.82
2019-05-11T02:43:21.562Z,86.82
2019-05-11T02:44:21.622Z,86.82
2019-05-11T02:45:21.550Z,86.68
2019-05-11T02:46:21.529Z,86.77
2019-05-11T02:47:21.516Z,87.23
2019-05-11T02:48:21.511Z,86.88
2019-05-11T02:49:21.499Z,86.98
2019-05-11T02:50:21.497Z,87.53
2019-05-11T02:51:21.474Z,87.12
2019-05-11T02:52:21.476Z,87.59
2019-05-11T02:53:21.451Z,87.38
2019-05-11T02:54:21.445Z,87.69
2019-05-11T02:55:21.452Z,87.49
2019-05-11T02:56:21.430Z,88.34
2019-05-11T02:57:21.423Z,88.45
2019-05-11T02:58:21.403Z,88.34
2019-05-11T02:59:21.387Z,87.23
2019-05-11T03:00:21.387Z,87.84
2019-05-11T03:01:21.365Z,87.53
2019-05-11T03:02:21.353Z,87.18
2019-05-11T03:03:21.346Z,87.38
2019-05-11T03:04:21.333Z,87.53
2019-05-11T03:05:21.334Z,87.38
2019-05-11T03:06:21.349Z,88.20
2019-05-11T03:07:21.315Z,87.43
2019-05-11T03:08:21.292Z,87.49
2019-05-11T03:09:21.280Z,88.20
2019-05-11T03:10:21.303Z,88.14
2019-05-11T03:11:21.270Z,88.14
2019-05-11T03:12:21.248Z,87.53
2019-05-11T03:13:21.239Z,87.94
2019-05-11T03:14:21.226Z,88.31
2019-05-11T03:15:21.224Z,88.20
2019-05-11T03:16:21.218Z,88.24
2019-05-11T03:17:21.207Z,88.31
2019-05-11T03:18:21.188Z,88.65
2019-05-11T03:19:21.205Z,88.24
2019-05-11T03:20:21.162Z,88.34
2019-05-11T03:21:21.163Z,88.71
2019-05-11T03:22:21.142Z,88.75
2019-05-11T03:23:21.140Z,88.75
2019-05-11T03:24:24.044Z,88.65
2019-05-11T03:25:21.109Z,88.24
2019-05-11T03:26:21.233Z,88.04
2019-05-11T03:27:21.091Z,88.34
2019-05-11T03:28:21.153Z,88.04
2019-05-11T03:29:21.072Z,88.51
2019-05-11T03:30:21.056Z,88.34
2019-05-11T03:31:21.055Z,88.34
2019-05-11T03:32:21.035Z,87.63
2019-05-11T03:33:21.025Z,87.69
2019-05-11T03:34:21.014Z,88.00
2019-05-11T03:35:21.003Z,88.20
2019-05-11T03:36:21.011Z,88.00
2019-05-11T03:37:20.980Z,87.69
2019-05-11T03:38:20.971Z,87.08
2019-05-11T03:39:20.959Z,87.29
2019-05-11T03:40:20.954Z,86.68
2019-05-11T03:41:20.954Z,87.29
2019-05-11T03:42:20.969Z,86.77
2019-05-11T03:43:20.955Z,86.57
2019-05-11T03:44:20.921Z,86.47
2019-05-11T03:45:20.894Z,86.37
2019-05-11T03:46:20.997Z,86.47
2019-05-11T03:47:20.876Z,86.57
2019-05-11T03:48:20.868Z,86.47
2019-05-11T03:49:20.851Z,86.27
2019-05-11T03:50:20.850Z,86.27
2019-05-11T03:51:20.853Z,86.22
2019-05-11T03:52:20.834Z,86.02
2019-05-11T03:53:20.810Z,85.55
2019-05-11T03:54:20.811Z,85.51
2019-05-11T03:55:20.791Z,85.51
2019-05-11T03:56:20.790Z,85.11
2019-05-11T03:57:20.774Z,85.11
2019-05-11T03:58:25.495Z,86.22
2019-05-11T03:59:21.751Z,85.51
2019-05-11T04:00:20.749Z,84.39
2019-05-11T04:01:20.736Z,86.13
2019-05-11T04:02:20.712Z,85.41
2019-05-11T04:03:20.706Z,86.02
2019-05-11T04:04:20.707Z,85.41
2019-05-11T04:05:20.694Z,85.68
2019-05-11T04:06:20.693Z,85.21
2019-05-11T04:07:20.657Z,85.21
2019-05-11T04:08:20.645Z,85.21
2019-05-11T04:09:20.643Z,85.21
2019-05-11T04:10:24.918Z,86.33
2019-05-11T04:11:20.627Z,85.21
2019-05-11T04:12:34.006Z,85.51
2019-05-11T04:13:21.600Z,85.41
2019-05-11T04:14:20.582Z,85.47
2019-05-11T04:15:20.573Z,85.47
2019-05-11T04:16:20.576Z,84.86
2019-05-11T04:17:20.552Z,85.17
2019-05-11T04:18:20.540Z,86.39
2019-05-11T04:19:20.534Z,85.21
2019-05-11T04:20:20.525Z,85.61
2019-05-11T04:21:20.522Z,86.29
2019-05-11T04:22:20.496Z,84.76
2019-05-11T04:23:20.494Z,85.17
2019-05-11T04:24:20.473Z,84.76
2019-05-11T04:25:20.469Z,85.27
2019-05-11T04:26:20.464Z,84.76
2019-05-11T04:27:20.451Z,85.27
2019-05-11T04:28:20.431Z,85.06
2019-05-11T04:29:20.421Z,85.37
2019-05-11T04:30:20.414Z,86.19
2019-05-11T04:31:20.415Z,86.08
2019-05-11T04:32:20.390Z,84.45
2019-05-11T04:33:20.378Z,84.76
2019-05-11T04:34:20.373Z,84.76
2019-05-11T04:35:20.394Z,84.66
2019-05-11T04:36:20.366Z,84.62
2019-05-11T04:37:20.338Z,84.62
2019-05-11T04:38:20.323Z,84.01
2019-05-11T04:39:20.330Z,83.60
2019-05-11T04:40:20.304Z,84.01
2019-05-11T04:41:20.296Z,84.11
2019-05-11T04:42:20.297Z,84.21
2019-05-11T04:43:20.269Z,84.31
2019-05-11T04:44:20.259Z,84.11
2019-05-11T04:45:20.256Z,84.82
2019-05-11T04:46:20.236Z,83.91
2019-05-11T04:47:20.243Z,83.70
2019-05-11T04:48:20.216Z,83.29
2019-05-11T04:49:20.203Z,83.50
2019-05-11T04:50:20.202Z,84.01
2019-05-11T04:51:20.183Z,83.29
2019-05-11T04:52:20.195Z,83.76
2019-05-11T04:53:20.162Z,83.81
2019-05-11T04:54:20.154Z,84.01
2019-05-11T04:55:20.139Z,83.87
2019-05-11T04:56:20.131Z,84.28
2019-05-11T04:57:20.131Z,83.26
2019-05-11T04:58:20.118Z,83.67
2019-05-11T04:59:20.107Z,83.29
2019-05-11T05:00:20.090Z,83.67
2019-05-11T05:01:20.075Z,83.56
2019-05-11T05:02:20.080Z,83.76
2019-05-11T05:03:20.051Z,83.97
2019-05-11T05:04:20.041Z,83.36
2019-05-11T05:05:20.033Z,83.15
2019-05-11T05:06:22.529Z,83.15
2019-05-11T05:07:20.026Z,82.85
2019-05-11T05:08:21.048Z,82.65
2019-05-11T05:09:21.091Z,82.75
2019-05-11T05:10:22.247Z,83.26
2019-05-11T05:11:19.967Z,83.46
2019-05-11T05:12:20.013Z,83.46
2019-05-11T05:13:23.432Z,83.46
2019-05-11T05:14:20.937Z,82.81
2019-05-11T05:15:19.929Z,83.22
2019-05-11T05:16:19.912Z,82.75
2019-05-11T05:17:19.915Z,82.51
2019-05-11T05:18:19.891Z,83.01
2019-05-11T05:19:19.884Z,82.71
2019-05-11T05:20:19.869Z,82.47
2019-05-11T05:21:19.858Z,82.51
2019-05-11T05:22:19.863Z,82.51
2019-05-11T05:23:19.839Z,82.51
2019-05-11T05:24:19.826Z,82.98
2019-05-11T05:25:19.815Z,82.78
2019-05-11T05:26:19.821Z,82.98
2019-05-11T05:27:19.837Z,82.73
2019-05-11T05:28:19.782Z,82.47
2019-05-11T05:29:19.781Z,82.57
2019-05-11T05:30:19.763Z,82.98
2019-05-11T05:31:19.774Z,83.08
2019-05-11T05:32:19.752Z,82.64
2019-05-11T05:33:19.734Z,82.43
2019-05-11T05:34:19.722Z,82.43
2019-05-11T05:35:19.710Z,82.78
2019-05-11T05:36:19.699Z,82.78
2019-05-11T05:37:19.697Z,82.67
2019-05-11T05:38:19.677Z,82.47
2019-05-11T05:39:19.664Z,83.04
2019-05-11T05:40:19.654Z,82.78
2019-05-11T05:41:19.645Z,83.04
2019-05-11T05:42:19.643Z,82.67
2019-05-11T05:43:27.421Z,82.84
2019-05-11T05:44:20.614Z,83.14
2019-05-11T05:45:19.605Z,83.14
2019-05-11T05:46:19.593Z,82.67
2019-05-11T05:47:19.592Z,82.98
2019-05-11T05:48:19.578Z,83.99
2019-05-11T05:49:19.557Z,83.95
2019-05-11T05:50:19.546Z,83.28
2019-05-11T05:51:19.539Z,83.69
2019-05-11T05:52:19.541Z,84.20
2019-05-11T05:53:19.548Z,84.09
2019-05-11T05:54:19.507Z,84.30
2019-05-11T05:55:19.493Z,84.20
2019-05-11T05:56:19.481Z,84.60
2019-05-11T05:57:19.499Z,85.11
2019-05-11T05:58:19.465Z,84.80
2019-05-11T05:59:19.450Z,84.40
2019-05-11T06:00:19.442Z,84.50
2019-05-11T06:01:19.426Z,84.30
2019-05-11T06:02:19.418Z,84.40
2019-05-11T06:03:19.410Z,84.30
2019-05-11T06:04:19.395Z,84.30
2019-05-11T06:05:19.382Z,84.40
2019-05-11T06:06:19.375Z,84.60
2019-05-11T06:07:19.373Z,84.40
2019-05-11T06:08:19.358Z,84.40
2019-05-11T06:09:19.340Z,85.01
2019-05-11T06:10:19.330Z,84.91
2019-05-11T06:11:19.321Z,84.91
2019-05-11T06:12:19.308Z,85.01
2019-05-11T06:13:19.308Z,85.72
2019-05-11T06:14:19.287Z,86.02
2019-05-11T06:15:19.283Z,86.22
2019-05-11T06:16:19.272Z,86.53
2019-05-11T06:17:19.260Z,86.83
2019-05-11T06:18:19.276Z,88.16
2019-05-11T06:19:19.233Z,87.75
2019-05-11T06:20:19.223Z,88.36
2019-05-11T06:21:19.211Z,87.85
2019-05-11T06:22:19.209Z,88.36
2019-05-11T06:23:19.202Z,88.40
2019-05-11T06:24:19.208Z,87.95
2019-05-11T06:25:19.176Z,87.85
2019-05-11T06:26:19.160Z,87.85
2019-05-11T06:27:19.197Z,87.24
2019-05-11T06:28:19.151Z,86.94
2019-05-11T06:29:21.689Z,88.06
2019-05-11T06:30:19.114Z,86.63
2019-05-11T06:31:19.125Z,86.83
2019-05-11T06:32:19.094Z,86.13
2019-05-11T06:33:19.095Z,86.43
2019-05-11T06:34:19.073Z,85.52
2019-05-11T06:35:22.415Z,86.49
2019-05-11T06:36:19.052Z,86.29
2019-05-11T06:37:19.038Z,85.94
2019-05-11T06:38:19.042Z,85.64
2019-05-11T06:39:19.037Z,85.84
2019-05-11T06:40:19.009Z,84.52
2019-05-11T06:41:18.997Z,84.93
2019-05-11T06:42:18.984Z,84.89
2019-05-11T06:43:18.986Z,84.85
2019-05-11T06:44:18.963Z,84.44
2019-05-11T06:45:18.951Z,84.24
2019-05-11T06:46:18.943Z,83.94
2019-05-11T06:47:18.939Z,84.85
2019-05-11T06:48:18.931Z,84.58
2019-05-11T06:49:18.909Z,84.28
2019-05-11T06:50:18.899Z,84.89
2019-05-11T06:51:18.891Z,85.19
2019-05-11T06:52:18.876Z,84.58
2019-05-11T06:53:18.891Z,84.78
2019-05-11T06:54:18.855Z,85.03
2019-05-11T06:55:18.844Z,85.09
2019-05-11T06:56:18.835Z,85.09
2019-05-11T06:57:18.826Z,85.19
2019-05-11T06:58:18.826Z,84.99
2019-05-11T06:59:18.814Z,84.28
2019-05-11T07:00:18.796Z,84.85
2019-05-11T07:01:18.778Z,84.95
2019-05-11T07:02:18.772Z,84.04
2019-05-11T07:03:18.777Z,84.44
2019-05-11T07:04:18.751Z,82.31
2019-05-11T07:05:18.735Z,82.92
2019-05-11T07:06:18.725Z,82.42
2019-05-11T07:07:18.714Z,82.92
2019-05-11T07:08:18.715Z,83.23
2019-05-11T07:09:18.705Z,82.68
2019-05-11T07:10:18.682Z,82.38
2019-05-11T07:11:18.673Z,81.77
2019-05-11T07:12:18.801Z,81.43
2019-05-11T07:13:18.938Z,81.57
2019-05-11T07:14:20.947Z,81.23
2019-05-11T07:15:18.632Z,80.72
2019-05-11T07:16:18.617Z,81.23
2019-05-11T07:17:18.611Z,80.92
2019-05-11T07:18:18.610Z,81.12
2019-05-11T07:19:18.598Z,81.63
2019-05-11T07:20:18.574Z,81.52
2019-05-11T07:21:18.568Z,81.43
2019-05-11T07:22:18.551Z,82.84
2019-05-11T07:23:18.541Z,81.63
2019-05-11T07:24:18.543Z,81.83
2019-05-11T07:25:18.521Z,82.24
2019-05-11T07:26:18.508Z,82.54
2019-05-11T07:27:18.500Z,83.76
2019-05-11T07:28:18.488Z,82.14
2019-05-11T07:29:18.492Z,82.95
2019-05-11T07:30:18.466Z,84.27
2019-05-11T07:31:18.458Z,85.88
2019-05-11T07:32:25.121Z,85.58
2019-05-11T07:33:19.431Z,85.38
2019-05-11T07:34:18.603Z,84.67
2019-05-11T07:35:18.908Z,83.72
2019-05-11T07:36:18.407Z,81.99
2019-05-11T07:37:18.634Z,81.55
2019-05-11T07:38:18.577Z,81.49
2019-05-11T07:39:18.730Z,81.25
2019-05-11T07:40:18.932Z,81.21
2019-05-11T07:41:18.347Z,81.05
2019-05-11T07:42:18.337Z,81.21
2019-05-11T07:43:18.877Z,80.20
2019-05-11T07:44:19.141Z,82.32
2019-05-11T07:45:19.315Z,80.91
2019-05-11T07:46:18.408Z,79.59
2019-05-11T07:47:18.796Z,78.95
2019-05-11T07:48:18.766Z,79.46
2019-05-11T07:49:18.271Z,77.70
2019-05-11T07:50:18.389Z,78.06
2019-05-11T07:51:18.457Z,79.17
2019-05-11T07:52:18.342Z,79.94
2019-05-11T07:53:18.718Z,79.44
2019-05-11T07:54:18.813Z,75.91
2019-05-11T07:55:18.985Z,75.10
2019-05-11T07:56:18.933Z,75.20
2019-05-11T07:57:18.715Z,76.11
2019-05-11T07:58:20.349Z,76.11
2019-05-11T07:59:18.483Z,76.51
2019-05-11T08:00:18.747Z,76.51
2019-05-11T08:01:18.882Z,75.27
2019-05-11T08:02:18.125Z,75.77
2019-05-11T08:03:18.245Z,74.76
2019-05-11T08:04:18.456Z,75.77
2019-05-11T08:05:18.220Z,74.36
2019-05-11T08:06:18.531Z,74.16
2019-05-11T08:07:18.269Z,75.03
2019-05-11T08:08:18.248Z,75.67
2019-05-11T08:09:18.790Z,74.26
2019-05-11T08:10:18.671Z,73.75
2019-05-11T08:11:18.337Z,73.92
2019-05-11T08:12:19.227Z,72.44
2019-05-11T08:13:18.006Z,73.15
2019-05-11T08:14:18.380Z,73.15
2019-05-11T08:15:18.488Z,73.55
2019-05-11T08:16:18.669Z,71.13
2019-05-11T08:17:18.639Z,71.73
2019-05-11T08:18:18.933Z,70.62
2019-05-11T08:19:18.690Z,68.71
2019-05-11T08:20:18.721Z,67.87
2019-05-11T08:21:18.079Z,67.87
2019-05-11T08:22:22.166Z,67.87
2019-05-11T08:23:18.893Z,68.27
2019-05-11T08:24:18.142Z,68.07
2019-05-11T08:25:18.356Z,66.36
2019-05-11T08:26:19.018Z,64.95
2019-05-11T08:27:18.674Z,64.34
2019-05-11T08:28:18.410Z,64.07
2019-05-11T08:29:18.527Z,64.04
2019-05-11T08:30:18.852Z,64.27
2019-05-11T08:31:18.686Z,64.47
2019-05-11T08:32:18.365Z,64.87
2019-05-11T08:33:18.287Z,66.19
2019-05-11T08:34:18.079Z,66.08
2019-05-11T08:35:17.985Z,64.98
2019-05-11T08:36:18.511Z,66.29
2019-05-11T08:37:18.916Z,65.75
2019-05-11T08:38:18.150Z,65.15
2019-05-11T08:39:18.337Z,64.95
2019-05-11T08:40:18.436Z,62.80
2019-05-11T08:41:18.500Z,62.40
2019-05-11T08:42:18.032Z,62.49
2019-05-11T08:43:18.071Z,63.81
2019-05-11T08:44:18.275Z,64.28
2019-05-11T08:45:24.096Z,61.66
2019-05-11T08:46:18.785Z,62.57
2019-05-11T08:47:17.909Z,62.77
2019-05-11T08:48:18.691Z,62.77
2019-05-11T08:49:19.041Z,63.27
2019-05-11T08:50:18.755Z,63.07
2019-05-11T08:51:18.700Z,62.44
2019-05-11T08:52:18.676Z,61.86
2019-05-11T08:53:17.950Z,61.36
2019-05-11T08:54:18.314Z,62.60
2019-05-11T08:55:18.996Z,62.60
2019-05-11T08:56:18.940Z,62.60
2019-05-11T08:57:18.065Z,63.90
2019-05-11T08:58:19.460Z,62.32
2019-05-11T08:59:18.681Z,62.12
2019-05-11T09:00:18.034Z,62.52
2019-05-11T09:01:18.597Z,65.45
2019-05-11T09:02:18.584Z,65.32
2019-05-11T09:03:17.961Z,64.51
2019-05-11T09:04:18.265Z,64.84
2019-05-11T09:05:18.744Z,65.15
2019-05-11T09:06:18.037Z,65.05
2019-05-11T09:07:18.418Z,64.14
2019-05-11T09:08:18.812Z,64.58
2019-05-11T09:09:18.159Z,64.87
2019-05-11T09:10:18.624Z,64.78
2019-05-11T09:11:19.065Z,65.95
2019-05-11T09:12:18.333Z,66.16
2019-05-11T09:13:18.511Z,65.35
2019-05-11T09:14:18.821Z,64.81
2019-05-11T09:15:32.646Z,65.01
2019-05-11T09:16:19.171Z,66.22
2019-05-11T09:17:18.246Z,66.22
2019-05-11T09:18:18.757Z,67.07
2019-05-11T09:19:17.882Z,66.56
2019-05-11T09:20:18.000Z,68.37
2019-05-11T09:21:19.119Z,66.76
2019-05-11T09:22:18.635Z,65.15
2019-05-11T09:23:32.470Z,62.76
2019-05-11T09:24:18.955Z,61.47
2019-05-11T09:25:18.369Z,62.59
2019-05-11T09:26:18.135Z,62.82
2019-05-11T09:27:18.409Z,62.21
2019-05-11T09:28:17.996Z,63.02
2019-05-11T09:29:18.009Z,61.88
2019-05-11T09:30:18.476Z,61.57
2019-05-11T09:31:18.865Z,61.80
2019-05-11T09:32:17.946Z,61.00
2019-05-11T09:33:20.454Z,60.77
2019-05-11T09:34:18.081Z,61.10
2019-05-11T09:35:18.855Z,60.80
2019-05-11T09:36:18.090Z,60.77
2019-05-11T09:37:18.386Z,60.36
2019-05-11T09:38:18.529Z,59.45
2019-05-11T09:39:17.759Z,60.49
2019-05-11T09:40:18.220Z,56.85
2019-05-11T09:41:18.023Z,54.74
2019-05-11T09:42:17.981Z,53.63
2019-05-11T09:43:17.878Z,53.09
2019-05-11T09:44:18.244Z,50.98
2019-05-11T09:45:18.669Z,52.29
2019-05-11T09:46:18.763Z,51.28
2019-05-11T09:47:18.925Z,49.96
2019-05-11T09:48:17.952Z,50.95
2019-05-11T09:49:18.507Z,50.24
2019-05-11T09:50:17.916Z,49.26
2019-05-11T09:51:18.454Z,50.65
2019-05-11T09:52:18.405Z,51.25
2019-05-11T09:53:17.725Z,51.25
2019-05-11T09:54:18.272Z,51.13
2019-05-11T09:55:19.012Z,51.84
2019-05-11T09:56:18.345Z,49.52
2019-05-11T09:57:18.496Z,49.59
2019-05-11T09:58:19.783Z,50.30
2019-05-11T09:59:17.873Z,50.57
2019-05-11T10:00:17.888Z,50.17
2019-05-11T10:01:18.253Z,48.26
2019-05-11T10:02:20.705Z,47.94
2019-05-11T10:03:18.773Z,47.74
2019-05-11T10:04:18.115Z,47.61
2019-05-11T10:05:18.845Z,46.80
2019-05-11T10:06:19.072Z,47.28
2019-05-11T10:07:18.079Z,46.78
2019-05-11T10:08:18.302Z,47.28
2019-05-11T10:09:18.666Z,46.15
2019-05-11T10:10:18.674Z,45.95
2019-05-11T10:11:18.853Z,46.23
2019-05-11T10:12:18.096Z,43.82
2019-05-11T10:13:18.557Z,45.41
2019-05-11T10:14:18.738Z,43.98
2019-05-11T10:15:18.746Z,43.28
2019-05-11T10:16:17.843Z,43.18
2019-05-11T10:17:18.227Z,43.78
2019-05-11T10:18:18.603Z,44.00
2019-05-11T10:19:17.930Z,43.60
2019-05-11T10:20:18.192Z,44.71
2019-05-11T10:21:18.840Z,43.50
2019-05-11T10:22:18.600Z,44.51
2019-05-11T10:23:18.606Z,43.92
2019-05-11T10:24:17.742Z,44.12
2019-05-11T10:25:18.123Z,44.04
2019-05-11T10:26:18.635Z,44.23
2019-05-11T10:27:18.738Z,44.63
2019-05-11T10:28:17.870Z,43.82
2019-05-11T10:29:18.259Z,44.02
2019-05-11T10:30:18.639Z,42.82
2019-05-11T10:31:18.147Z,43.12
2019-05-11T10:32:18.270Z,44.02
2019-05-11T10:33:18.680Z,44.20
2019-05-11T10:34:18.013Z,45.10
2019-05-11T10:35:18.394Z,44.68
2019-05-11T10:36:18.746Z,43.68
2019-05-11T10:37:17.648Z,43.68
2019-05-11T10:38:18.006Z,42.97
2019-05-11T10:39:18.645Z,43.78
2019-05-11T10:40:18.659Z,42.80
2019-05-11T10:41:18.068Z,42.97
2019-05-11T10:42:18.034Z,43.06
2019-05-11T10:43:18.392Z,41.65
2019-05-11T10:44:18.601Z,41.75
2019-05-11T10:45:18.029Z,41.63
2019-05-11T10:46:22.455Z,42.83
2019-05-11T10:47:18.444Z,41.41
2019-05-11T10:48:17.757Z,40.81
2019-05-11T10:49:18.316Z,41.31
2019-05-11T10:50:18.564Z,41.33
2019-05-11T10:51:18.468Z,41.53
2019-05-11T10:52:18.040Z,41.96
2019-05-11T10:53:18.327Z,42.46
2019-05-11T10:54:18.490Z,41.07
2019-05-11T10:55:19.002Z,41.67
2019-05-11T10:56:17.861Z,41.77
2019-05-11T10:57:18.721Z,42.27
2019-05-11T10:58:18.359Z,42.47
2019-05-11T10:59:18.546Z,43.06
2019-05-11T11:00:17.817Z,41.85
2019-05-11T11:01:18.202Z,41.25
2019-05-11T11:02:18.352Z,41.25
2019-05-11T11:03:17.893Z,41.75
2019-05-11T11:04:18.282Z,40.73
2019-05-11T11:05:18.542Z,41.43
2019-05-11T11:06:18.597Z,40.03
2019-05-11T11:07:17.274Z,40.45
2019-05-11T11:08:18.379Z,41.15
2019-05-11T11:09:17.787Z,41.67
2019-05-11T11:10:18.170Z,41.67
2019-05-11T11:11:18.274Z,42.69
2019-05-11T11:12:16.078Z,42.60
2019-05-11T11:13:16.056Z,43.10
2019-05-11T11:14:18.060Z,43.30
2019-05-11T11:15:18.187Z,42.60
2019-05-11T11:16:34.331Z,41.39
2019-05-11T11:17:19.185Z,41.59
2019-05-11T11:18:16.003Z,41.57
2019-05-11T11:19:18.183Z,41.79
2019-05-11T11:20:18.478Z,42.27
2019-05-11T11:21:20.110Z,41.67
2019-05-11T11:22:35.736Z,41.89
2019-05-11T11:23:17.713Z,41.87
2019-05-11T11:24:18.026Z,42.47
2019-05-11T11:25:17.948Z,43.28
2019-05-11T11:26:18.210Z,41.67
2019-05-11T11:27:15.915Z,41.47
2019-05-11T11:28:17.550Z,41.59
2019-05-11T11:29:17.879Z,42.58
2019-05-11T11:30:17.977Z,41.17
2019-05-11T11:31:18.381Z,41.05
2019-05-11T11:32:15.863Z,41.63
2019-05-11T11:33:17.952Z,41.01
2019-05-11T11:34:15.828Z,40.81
2019-05-11T11:35:15.818Z,40.81
2019-05-11T11:36:17.954Z,39.61
2019-05-11T11:37:17.575Z,38.70
2019-05-11T11:38:17.868Z,40.69
2019-05-11T11:39:15.776Z,39.59
2019-05-11T11:40:17.738Z,39.67
2019-05-11T11:41:17.865Z,38.57
2019-05-11T11:42:17.763Z,38.87
2019-05-11T11:43:17.887Z,39.37
2019-05-11T11:44:18.313Z,38.55
2019-05-11T11:45:18.108Z,39.03
2019-05-11T11:46:15.701Z,38.83
2019-05-11T11:47:20.947Z,39.13
2019-05-11T11:48:18.708Z,38.91
2019-05-11T11:49:15.669Z,38.63
2019-05-11T11:50:17.645Z,38.43
2019-05-11T11:51:15.661Z,38.85
2019-05-11T11:52:15.637Z,39.77
2019-05-11T11:53:15.634Z,38.97
2019-05-11T11:54:17.955Z,39.99
2019-05-11T11:55:15.606Z,41.19
2019-05-11T11:56:15.595Z,40.21
2019-05-11T11:57:15.584Z,40.91
2019-05-11T11:58:20.117Z,41.43
2019-05-11T11:59:17.850Z,40.85
2019-05-11T12:00:18.118Z,40.95
2019-05-11T12:01:30.099Z,41.33
2019-05-11T12:02:15.532Z,40.83
2019-05-11T12:03:15.526Z,40.91
2019-05-11T12:04:15.510Z,40.11
2019-05-11T12:05:17.552Z,40.01
2019-05-11T12:06:17.953Z,40.11
2019-05-11T12:07:17.769Z,41.01
2019-05-11T12:08:15.470Z,41.43
2019-05-11T12:09:18.022Z,41.33
2019-05-11T12:10:15.447Z,41.85
2019-05-11T12:11:15.437Z,41.57
2019-05-11T12:12:15.425Z,41.77
2019-05-11T12:13:15.416Z,41.57
2019-05-11T12:14:15.411Z,40.67
2019-05-11T12:15:17.621Z,40.65
2019-05-11T12:16:17.765Z,40.85
2019-05-11T12:17:18.036Z,40.35
2019-05-11T12:18:15.363Z,41.15
2019-05-11T12:19:15.350Z,40.17
2019-05-11T12:20:15.339Z,40.85
2019-05-11T12:21:15.330Z,40.63
2019-05-11T12:22:15.316Z,39.62
2019-05-11T12:23:15.310Z,39.71
2019-05-11T12:24:15.297Z,38.31
2019-05-11T12:25:15.285Z,39.29
2019-05-11T12:26:17.544Z,39.39
2019-05-11T12:27:15.265Z,38.37
2019-05-11T12:28:15.258Z,37.95
2019-05-11T12:29:15.243Z,37.08
2019-05-11T12:30:15.231Z,33.65
2019-05-11T12:31:15.220Z,33.04
2019-05-11T12:32:15.211Z,33.15
2019-05-11T12:33:15.209Z,33.35
2019-05-11T12:34:15.187Z,34.20
2019-05-11T12:35:15.179Z,35.81
2019-05-11T12:36:15.190Z,36.15
2019-05-11T12:37:15.156Z,35.63
2019-05-11T12:38:15.157Z,35.36
2019-05-11T12:39:15.134Z,33.95
2019-05-11T12:40:15.124Z,33.88
2019-05-11T12:41:15.114Z,34.05
2019-05-11T12:42:15.105Z,32.03
2019-05-11T12:43:15.185Z,28.83
2019-05-11T12:44:15.084Z,25.37
2019-05-11T12:45:15.071Z,23.31
2019-05-11T12:46:15.061Z,22.05
2019-05-11T12:47:22.172Z,20.51
2019-05-11T12:48:18.050Z,18.92
2019-05-11T12:49:15.028Z,18.86
2019-05-11T12:50:15.021Z,19.96
2019-05-11T12:51:15.009Z,21.42
2019-05-11T12:52:14.997Z,22.60